Time;durP1;ratioP1;P1;durP2;ratioP2;P2;SDS_P1;SDS_P2;PMS_P1;PMS_P2;Temp;Humidity;BMP_temperature;BMP_pressure;BME280_temperature;BME280_humidity;BME280_pressure;Samples;Min_cycle;Max_cycle;Signal;HPM_P1;HPM_P2
2023/10/13 00:01:04;;;;;;;9.70;2.33;;;19.70;99.90;;;;;;5013626;28;20084;-72
2023/10/13 00:03:31;;;;;;;8.35;2.60;;;19.70;99.90;;;;;;5013800;28;20025;-71
2023/10/13 00:06:02;;;;;;;8.27;2.05;;;19.70;99.90;;;;;;5013658;28;20108;-69
2023/10/13 00:08:29;;;;;;;5.05;2.00;;;19.60;99.90;;;;;;5013304;28;20117;-72
2023/10/13 00:11:00;;;;;;;7.88;2.67;;;19.60;99.90;;;;;;5013401;28;20028;-72
2023/10/13 00:13:31;;;;;;;9.63;2.63;;;19.60;99.90;;;;;;5013629;28;20041;-72
2023/10/13 00:15:57;;;;;;;6.28;1.90;;;19.60;99.90;;;;;;5012978;28;20148;-72
2023/10/13 00:18:32;;;;;;;6.43;2.00;;;19.70;99.90;;;;;;5013634;28;20104;-71
2023/10/13 00:20:59;;;;;;;5.93;2.10;;;19.70;99.90;;;;;;5013605;28;20079;-72
2023/10/13 00:23:27;;;;;;;6.47;1.85;;;19.70;99.90;;;;;;5013234;28;20379;-72
2023/10/13 00:25:57;;;;;;;6.78;2.20;;;19.70;99.90;;;;;;5013286;28;20025;-72
2023/10/13 00:28:35;;;;;;;7.35;2.30;;;19.70;99.90;;;;;;5013320;28;20479;-72
2023/10/13 00:31:03;;;;;;;6.88;2.30;;;19.60;99.90;;;;;;5013472;28;20033;-71
2023/10/13 00:33:31;;;;;;;9.68;2.55;;;19.70;99.90;;;;;;5013540;28;20184;-72
2023/10/13 00:35:58;;;;;;;5.20;2.33;;;19.60;99.90;;;;;;5013301;28;20080;-72
2023/10/13 00:38:24;;;;;;;5.90;2.55;;;19.60;99.90;;;;;;5013007;28;20479;-72
2023/10/13 00:40:53;;;;;;;9.00;2.30;;;19.60;99.90;;;;;;5012898;28;20157;-72
2023/10/13 00:45:55;;;;;;;9.05;2.42;;;19.60;99.90;;;;;;5013158;28;20487;-72
2023/10/13 00:48:54;;;;;;;5.53;2.05;;;19.60;99.90;;;;;;5013204;28;20038;-71
2023/10/13 00:51:32;;;;;;;5.55;2.10;;;19.60;99.90;;;;;;5013138;28;20052;-71
2023/10/13 00:54:07;;;;;;;7.90;2.92;;;19.60;99.90;;;;;;5013154;28;20379;-72
2023/10/13 00:56:33;;;;;;;5.35;2.33;;;19.60;99.90;;;;;;5013104;28;20018;-72
2023/10/13 00:59:02;;;;;;;6.95;2.22;;;19.60;99.90;;;;;;5013270;28;20422;-72
2023/10/13 01:01:35;;;;;;;7.75;2.55;;;19.60;99.90;;;;;;5013438;28;20052;-72
2023/10/13 01:04:04;;;;;;;6.43;2.83;;;19.60;99.90;;;;;;5013059;28;20030;-72
2023/10/13 01:06:31;;;;;;;9.95;2.85;;;19.60;99.90;;;;;;5012893;28;20030;-72
2023/10/13 01:09:16;;;;;;;6.63;2.40;;;19.60;99.90;;;;;;5011808;28;20063;-72
2023/10/13 01:11:52;;;;;;;4.25;2.33;;;19.60;99.90;;;;;;5012888;28;20018;-73
2023/10/13 01:14:20;;;;;;;5.13;2.33;;;19.60;99.90;;;;;;5013278;28;20034;-71
2023/10/13 01:16:47;;;;;;;9.60;3.60;;;19.60;99.90;;;;;;5012975;28;20110;-72
2023/10/13 01:19:21;;;;;;;5.70;2.85;;;19.60;99.90;;;;;;5012929;28;20056;-73
2023/10/13 01:21:54;;;;;;;6.47;3.22;;;19.60;99.90;;;;;;5012464;28;20018;-72
2023/10/13 01:24:23;;;;;;;5.32;2.42;;;19.60;99.90;;;;;;5012309;28;20559;-72
2023/10/13 01:26:51;;;;;;;8.73;3.13;;;19.60;99.90;;;;;;5013607;28;20037;-72
2023/10/13 01:29:18;;;;;;;9.52;2.95;;;19.50;99.90;;;;;;5016264;28;20034;-72
2023/10/13 01:31:45;;;;;;;7.97;3.15;;;19.60;99.90;;;;;;5016593;28;20022;-72
2023/10/13 01:34:24;;;;;;;7.05;3.35;;;19.50;99.90;;;;;;5016255;28;20467;-72
2023/10/13 01:36:54;;;;;;;8.15;3.05;;;19.60;99.90;;;;;;5016378;28;20033;-72
2023/10/13 01:39:28;;;;;;;7.15;2.90;;;19.60;99.90;;;;;;5016589;28;20112;-72
2023/10/13 01:41:57;;;;;;;7.13;3.45;;;19.60;99.90;;;;;;5015886;28;20566;-72
2023/10/13 01:44:24;;;;;;;5.88;3.40;;;19.60;99.90;;;;;;5016414;28;20128;-72
2023/10/13 01:46:51;;;;;;;5.05;3.35;;;19.60;99.90;;;;;;5016589;28;20083;-72
2023/10/13 01:49:16;;;;;;;6.57;3.30;;;19.60;99.90;;;;;;5016154;28;20041;-72
2023/10/13 01:51:42;;;;;;;5.32;3.70;;;19.60;99.90;;;;;;5016812;28;20022;-69
2023/10/13 01:54:12;;;;;;;11.35;4.35;;;19.60;99.90;;;;;;5016045;28;20025;-69
2023/10/13 01:56:43;;;;;;;8.07;4.70;;;19.60;99.90;;;;;;5015969;28;20375;-69
2023/10/13 01:59:11;;;;;;;7.57;5.07;;;19.60;99.90;;;;;;5015916;28;20033;-72
2023/10/13 02:01:37;;;;;;;8.02;4.47;;;19.60;99.90;;;;;;5016094;28;20101;-71
2023/10/13 02:04:03;;;;;;;10.32;5.57;;;19.50;99.90;;;;;;5015139;28;20439;-71
2023/10/13 02:06:36;;;;;;;10.63;5.45;;;19.50;99.90;;;;;;5014911;28;20029;-69
2023/10/13 02:09:15;;;;;;;;;;;19.60;99.90;;;;;;5016100;28;20026;-72
2023/10/13 02:11:45;;;;;;;10.60;6.60;;;19.60;99.90;;;;;;5015905;28;19912;-71
2023/10/13 02:14:12;;;;;;;12.63;6.88;;;19.60;99.90;;;;;;5015495;28;20045;-69
2023/10/13 02:16:38;;;;;;;12.35;6.68;;;19.60;99.90;;;;;;5015890;28;20053;-69
2023/10/13 02:19:04;;;;;;;11.55;7.35;;;19.60;99.90;;;;;;5015352;28;20088;-72
2023/10/13 02:21:38;;;;;;;14.30;8.10;;;19.60;99.90;;;;;;5015660;28;20472;-72
2023/10/13 02:24:12;;;;;;;14.93;8.32;;;19.60;99.90;;;;;;5015294;28;20024;-72
2023/10/13 02:26:39;;;;;;;11.75;8.45;;;19.60;99.90;;;;;;5015589;28;20014;-69
2023/10/13 02:29:08;;;;;;;10.43;8.90;;;19.60;99.90;;;;;;5015244;28;20497;-69
2023/10/13 02:31:39;;;;;;;11.85;9.18;;;19.60;99.90;;;;;;5015362;28;20033;-69
2023/10/13 02:34:08;;;;;;;11.20;8.90;;;19.60;99.90;;;;;;5014887;28;20041;-72
2023/10/13 02:36:46;;;;;;;12.85;10.30;;;19.60;99.90;;;;;;5015118;28;20030;-69
2023/10/13 02:39:13;;;;;;;16.05;11.65;;;19.60;99.90;;;;;;5014484;28;20483;-68
2023/10/13 02:41:41;;;;;;;13.90;11.23;;;19.60;99.90;;;;;;5015329;28;20018;-71
2023/10/13 02:44:19;;;;;;;13.25;11.52;;;19.60;99.90;;;;;;5015013;28;20118;-72
2023/10/13 02:46:50;;;;;;;18.98;12.18;;;19.60;99.90;;;;;;5015096;28;20103;-72
2023/10/13 02:49:19;;;;;;;12.93;10.20;;;19.50;99.90;;;;;;5014851;28;20038;-70
2023/10/13 02:51:45;;;;;;;14.75;12.57;;;19.50;99.90;;;;;;5015089;28;20549;-69
2023/10/13 02:54:11;;;;;;;8.40;5.30;;;19.60;99.90;;;;;;5014811;28;20030;-72
2023/10/13 02:56:48;;;;;;;14.18;12.30;;;19.50;99.90;;;;;;5014958;28;20032;-70
2023/10/13 02:59:14;;;;;;;15.27;11.10;;;19.60;99.90;;;;;;5014571;28;20045;-72
2023/10/13 03:01:39;;;;;;;13.75;11.55;;;19.60;99.90;;;;;;5014656;28;20108;-71
2023/10/13 03:04:12;;;;;;;12.45;11.35;;;19.60;99.90;;;;;;5014657;28;20030;-71
2023/10/13 03:06:40;;;;;;;11.13;7.68;;;19.60;99.90;;;;;;5014399;28;20475;-69
2023/10/13 03:09:18;;;;;;;10.23;9.13;;;19.60;99.90;;;;;;5014805;28;20034;-72
2023/10/13 03:11:48;;;;;;;10.20;8.75;;;19.60;99.90;;;;;;5014682;28;20030;-69
2023/10/13 03:17:02;;;;;;;8.27;6.63;;;19.60;99.90;;;;;;5013826;28;20479;-69
2023/10/13 03:19:32;;;;;;;9.93;7.80;;;19.60;99.90;;;;;;5013092;28;20391;-69
2023/10/13 03:22:09;;;;;;;10.38;9.35;;;19.60;99.90;;;;;;5014694;28;20033;-69
2023/10/13 03:24:35;;;;;;;8.13;7.28;;;19.60;99.90;;;;;;5014027;28;20018;-70
2023/10/13 03:27:16;;;;;;;9.52;7.57;;;19.60;99.90;;;;;;5014524;28;20103;-69
2023/10/13 03:29:42;;;;;;;9.38;6.20;;;19.60;99.90;;;;;;5014063;28;20038;-71
2023/10/13 03:32:13;;;;;;;9.00;7.07;;;19.60;99.90;;;;;;5014028;28;20022;-69
2023/10/13 03:37:18;;;;;;;9.50;8.07;;;19.70;99.90;;;;;;5014444;28;20055;-70
2023/10/13 03:39:45;;;;;;;10.00;8.07;;;19.70;99.90;;;;;;5013931;28;20022;-69
2023/10/13 03:42:18;;;;;;;11.77;8.82;;;19.60;99.90;;;;;;5014353;28;20076;-69
2023/10/13 03:44:48;;;;;;;12.50;9.02;;;19.70;99.90;;;;;;5013769;28;20104;-72
2023/10/13 03:47:26;;;;;;;10.88;7.60;;;19.70;99.90;;;;;;5014328;28;20030;-72
2023/10/13 03:50:14;;;;;;;9.40;7.60;;;19.70;99.90;;;;;;5013337;28;20475;-72
2023/10/13 03:52:39;;;;;;;10.02;7.43;;;19.70;99.90;;;;;;5013827;28;20038;-72
2023/10/13 03:55:06;;;;;;;7.07;6.35;;;19.70;99.90;;;;;;5014068;28;20033;-73
2023/10/13 03:57:34;;;;;;;9.40;7.18;;;19.70;99.90;;;;;;5012699;28;20113;-72
2023/10/13 04:00:08;;;;;;;10.52;6.65;;;19.70;99.90;;;;;;5014351;28;20549;-72
2023/10/13 04:02:34;;;;;;;8.43;6.72;;;19.60;99.90;;;;;;5009912;28;20084;-72
2023/10/13 04:05:07;;;;;;;8.98;6.93;;;19.70;99.90;;;;;;5012628;28;20459;-71
2023/10/13 04:07:39;;;;;;;7.65;6.60;;;19.70;99.90;;;;;;5013772;28;20026;-72
2023/10/13 04:11:41;;;;;;;10.55;7.25;;;19.70;99.90;;;;;;5012759;28;20038;-69
2023/10/13 04:16:02;;;;;;;13.43;6.82;;;19.70;99.90;;;;;;5013302;28;20084;-69
2023/10/13 04:18:34;;;;;;;8.02;6.68;;;19.80;99.90;;;;;;5011673;28;20053;-69
2023/10/13 04:21:21;;;;;;;5.90;5.32;;;19.80;99.90;;;;;;5011965;28;20367;-71
2023/10/13 04:26:37;;;;;;;9.82;6.15;;;19.70;99.90;;;;;;5013231;28;20525;-71
2023/10/13 04:29:10;;;;;;;;;;;19.70;99.90;;;;;;5013294;28;20395;-71
2023/10/13 04:31:59;;;;;;;11.63;7.00;;;19.70;99.90;;;;;;5012192;28;20325;-69
2023/10/13 04:34:34;;;;;;;8.00;5.13;;;19.80;99.90;;;;;;5010941;28;20033;-70
2023/10/13 04:39:45;;;;;;;6.60;4.57;;;19.70;99.90;;;;;;5013243;28;20510;-68
2023/10/13 04:42:13;;;;;;;7.70;5.13;;;19.70;99.90;;;;;;5013166;28;20026;-69
2023/10/13 04:44:48;;;;;;;9.52;5.25;;;19.70;99.90;;;;;;5012969;28;20026;-69
2023/10/13 04:47:21;;;;;;;6.63;5.38;;;19.70;99.90;;;;;;5011907;28;20156;-69
2023/10/13 04:52:26;;;;;;;10.60;5.47;;;19.70;99.90;;;;;;5013127;28;20093;-69
2023/10/13 04:54:55;;;;;;;7.82;4.97;;;19.70;99.90;;;;;;5013093;28;20030;-69
2023/10/13 05:51:57;;;;;;;10.77;5.78;;;19.70;99.90;;;;;;5010702;28;20041;-72
2023/10/13 06:30:12;;;;;;;13.30;4.65;;;19.90;99.90;;;;;;5006219;28;20045;-69
2023/10/13 06:32:39;;;;;;;13.45;4.75;;;19.80;99.90;;;;;;5002650;28;20035;-71
2023/10/13 06:35:08;;;;;;;12.88;4.97;;;19.90;99.90;;;;;;5005650;28;20085;-69
2023/10/13 06:37:36;;;;;;;8.57;4.50;;;19.90;99.90;;;;;;5005029;28;20026;-70
2023/10/13 06:43:03;;;;;;;12.75;4.82;;;19.90;99.90;;;;;;5003680;28;20117;-69
2023/10/13 06:45:29;;;;;;;13.02;5.05;;;19.90;99.90;;;;;;4997863;28;20475;-70
2023/10/13 06:47:55;;;;;;;12.98;5.18;;;19.90;99.90;;;;;;5002877;28;20061;-69
2023/10/13 06:50:24;;;;;;;12.02;4.68;;;19.90;99.90;;;;;;5013549;28;20530;-71
2023/10/13 06:52:54;;;;;;;12.38;5.18;;;20.00;99.90;;;;;;5006683;28;20105;-69
2023/10/13 06:55:35;;;;;;;15.73;5.38;;;20.00;99.90;;;;;;5008332;28;20441;-71
2023/10/13 06:58:00;;;;;;;15.07;4.78;;;20.00;99.90;;;;;;5008540;28;20046;-71
2023/10/13 07:00:34;;;;;;;12.48;4.93;;;20.00;99.90;;;;;;5009286;28;20499;-70
2023/10/13 07:03:06;;;;;;;12.90;4.93;;;20.00;99.90;;;;;;5012487;28;20029;-69
2023/10/13 07:05:39;;;;;;;11.25;4.47;;;20.00;99.90;;;;;;5006827;28;20048;-69
2023/10/13 07:08:08;;;;;;;12.57;4.97;;;20.00;99.90;;;;;;5004148;28;20065;-69
2023/10/13 07:11:32;;;;;;;18.33;4.90;;;20.00;99.90;;;;;;5005615;28;20052;-69
2023/10/13 07:13:22;;;;;;;12.95;5.47;;;20.00;99.90;;;;;;5002301;28;20042;-70
2023/10/13 07:15:47;;;;;;;13.52;4.63;;;20.00;99.90;;;;;;5010467;28;20113;-70
2023/10/13 07:18:20;;;;;;;10.68;3.95;;;20.00;99.90;;;;;;5012160;28;20457;-71
2023/10/13 07:20:45;;;;;;;8.82;4.68;;;20.00;99.90;;;;;;5011084;28;20036;-70
2023/10/13 07:23:23;;;;;;;8.88;4.70;;;20.00;99.90;;;;;;5011718;28;20482;-69
2023/10/13 07:25:54;;;;;;;10.20;4.78;;;20.00;99.90;;;;;;5011752;28;20131;-70
2023/10/13 07:28:20;;;;;;;9.57;4.47;;;20.00;99.90;;;;;;5011905;28;20828;-71
2023/10/13 07:30:57;;;;;;;12.48;4.65;;;20.10;99.90;;;;;;5010335;28;20299;-70
2023/10/13 07:33:31;;;;;;;10.70;4.28;;;20.10;99.90;;;;;;5012565;28;20041;-70
2023/10/13 07:36:11;;;;;;;7.53;4.10;;;20.10;99.90;;;;;;5012724;28;20450;-70
2023/10/13 07:38:37;;;;;;;9.98;4.75;;;20.10;99.90;;;;;;5010890;28;20476;-70
2023/10/13 07:41:09;;;;;;;9.88;4.80;;;20.10;99.90;;;;;;5010571;28;20030;-69
2023/10/13 07:43:39;;;;;;;11.05;4.72;;;20.10;99.90;;;;;;5008529;28;20482;-70
2023/10/13 07:46:12;;;;;;;13.18;4.18;;;20.10;99.90;;;;;;5010336;28;20021;-70
2023/10/13 07:48:40;;;;;;;8.32;4.82;;;20.10;99.90;;;;;;5011537;28;20495;-70
2023/10/13 07:51:27;;;;;;;9.80;5.05;;;20.10;99.90;;;;;;5008841;28;20026;-69
2023/10/13 07:53:53;;;;;;;11.65;4.68;;;20.10;99.90;;;;;;5003032;28;20315;-70
2023/10/13 07:56:20;;;;;;;14.98;5.05;;;20.10;99.90;;;;;;5010515;28;20487;-70
2023/10/13 07:59:00;;;;;;;11.40;4.68;;;20.10;99.90;;;;;;5012337;28;20021;-70
2023/10/13 08:01:26;;;;;;;10.30;4.90;;;20.20;99.90;;;;;;5012477;28;20104;-70
2023/10/13 08:04:28;;;;;;;7.90;4.50;;;20.20;99.90;;;;;;5013441;28;20113;-70
2023/10/13 08:06:45;;;;;;;12.07;4.00;;;20.20;99.90;;;;;;5010638;28;20491;-70
2023/10/13 08:11:55;;;;;;;10.27;5.03;;;20.20;99.90;;;;;;5011802;28;20036;-69
2023/10/13 08:14:28;;;;;;;11.25;4.97;;;20.20;99.90;;;;;;5008756;28;20033;-70
2023/10/13 08:16:59;;;;;;;9.73;5.35;;;20.20;99.90;;;;;;5010881;28;20097;-70
2023/10/13 08:19:27;;;;;;;14.35;5.45;;;20.30;99.90;;;;;;5004749;28;20021;-70
2023/10/13 08:37:32;;;;;;;11.27;4.95;;;20.30;99.90;;;;;;5014270;28;20177;-69
2023/10/13 08:48:08;;;;;;;11.15;5.70;;;20.30;99.90;;;;;;5009698;28;20169;-69
2023/10/13 08:53:31;;;;;;;15.02;6.25;;;20.30;99.90;;;;;;5008644;28;20045;-68
2023/10/13 08:56:32;;;;;;;14.82;5.60;;;20.40;99.90;;;;;;5007521;28;20026;-70
2023/10/13 09:12:10;;;;;;;11.68;5.85;;;20.50;99.90;;;;;;5012958;28;20034;-70
2023/10/13 09:14:39;;;;;;;13.52;6.00;;;20.50;99.90;;;;;;5010473;28;20534;-69
2023/10/13 09:18:12;;;;;;;16.50;6.80;;;20.40;99.90;;;;;;5010753;28;20065;-69
2023/10/13 09:19:56;;;;;;;11.10;5.70;;;20.50;99.90;;;;;;5007516;28;20091;-69
2023/10/13 09:22:35;;;;;;;14.07;6.40;;;20.50;99.90;;;;;;5012364;28;20052;-70
2023/10/13 09:25:02;;;;;;;10.20;6.30;;;20.50;99.90;;;;;;5011549;28;20029;-68
2023/10/13 09:27:32;;;;;;;10.18;5.68;;;20.50;99.90;;;;;;5010758;28;20540;-68
2023/10/13 09:30:23;;;;;;;10.75;5.18;;;20.50;99.90;;;;;;5010366;28;20084;-69
2023/10/13 09:33:08;;;;;;;9.52;6.18;;;20.60;99.90;;;;;;5010041;28;20479;-69
2023/10/13 09:35:36;;;;;;;9.07;5.75;;;20.60;99.90;;;;;;5008369;28;20386;-70
2023/10/13 09:38:03;;;;;;;14.25;5.80;;;20.60;99.90;;;;;;5010894;28;20065;-70
2023/10/13 09:43:04;;;;;;;15.63;6.10;;;20.60;99.90;;;;;;5012457;28;20026;-70
2023/10/13 09:45:56;;;;;;;11.50;5.72;;;20.60;99.90;;;;;;5016114;28;20032;-71
2023/10/13 09:48:40;;;;;;;12.27;6.18;;;20.60;99.90;;;;;;5007461;28;20033;-70
2023/10/13 09:51:12;;;;;;;12.18;5.70;;;20.70;99.90;;;;;;5011895;28;20025;-69
2023/10/13 09:53:40;;;;;;;12.57;6.00;;;20.60;99.90;;;;;;5009165;28;20014;-69
2023/10/13 09:56:19;;;;;;;11.32;5.28;;;20.60;99.90;;;;;;5009558;28;20038;-69
2023/10/13 09:58:57;;;;;;;10.45;5.75;;;20.60;99.90;;;;;;5005810;28;20034;-68
2023/10/13 10:01:31;;;;;;;16.83;7.00;;;20.70;99.90;;;;;;5007498;28;20053;-69
2023/10/13 10:04:08;;;;;;;13.55;5.85;;;20.60;99.90;;;;;;5008414;28;20058;-69
2023/10/13 10:06:39;;;;;;;10.93;6.22;;;20.70;99.90;;;;;;5013362;28;20096;-70
2023/10/13 10:09:12;;;;;;;11.15;5.72;;;20.70;99.90;;;;;;5007592;28;20128;-69
2023/10/13 10:12:25;;;;;;;13.25;6.43;;;20.70;99.90;;;;;;5010358;28;20059;-69
2023/10/13 10:15:20;;;;;;;;;;;20.70;99.90;;;;;;4986060;28;20037;-70
2023/10/13 10:17:47;;;;;;;13.05;6.57;;;20.70;99.90;;;;;;4987635;28;19996;-69
2023/10/13 10:20:32;;;;;;;14.50;6.30;;;20.70;99.90;;;;;;5005647;28;20030;-70
2023/10/13 10:22:59;;;;;;;14.35;6.97;;;20.70;99.90;;;;;;5008060;28;20068;-69
2023/10/13 10:25:34;;;;;;;14.35;7.22;;;20.70;99.90;;;;;;5008521;28;20041;-70
2023/10/13 10:28:07;;;;;;;14.32;5.82;;;20.80;99.90;;;;;;5012341;28;20033;-70
2023/10/13 10:30:41;;;;;;;11.35;6.25;;;20.70;99.90;;;;;;5001487;28;20117;-71
2023/10/13 10:33:18;;;;;;;14.32;6.18;;;20.70;99.90;;;;;;5011813;28;20947;-69
2023/10/13 10:35:47;;;;;;;12.48;6.45;;;20.70;99.90;;;;;;5010443;28;20495;-71
2023/10/13 10:38:24;;;;;;;13.15;6.03;;;20.80;99.90;;;;;;5009950;28;20029;-69
2023/10/13 10:40:57;;;;;;;14.88;6.63;;;20.70;99.90;;;;;;5006053;28;20430;-69
2023/10/13 10:43:28;;;;;;;11.68;5.97;;;20.70;99.90;;;;;;5010761;28;20675;-70
2023/10/13 10:45:59;;;;;;;12.07;6.25;;;20.80;99.90;;;;;;5011997;28;20022;-69
2023/10/13 10:48:31;;;;;;;15.82;5.70;;;20.80;99.90;;;;;;5008747;28;20026;-69
2023/10/13 10:50:58;;;;;;;14.00;6.30;;;20.80;99.90;;;;;;5009496;28;20427;-69
2023/10/13 10:54:11;;;;;;;12.88;6.25;;;20.80;99.90;;;;;;5012391;28;20069;-69
2023/10/13 10:56:20;;;;;;;17.00;6.57;;;20.80;99.90;;;;;;5001296;28;20034;-69
2023/10/13 10:58:54;;;;;;;12.95;6.13;;;20.70;99.90;;;;;;5010747;28;20026;-69
2023/10/13 11:01:22;;;;;;;15.00;6.40;;;20.80;99.90;;;;;;5011771;28;20029;-70
2023/10/13 11:04:14;;;;;;;8.60;6.00;;;20.80;99.90;;;;;;5012399;28;20479;-70
2023/10/13 11:06:46;;;;;;;;;;;20.80;99.90;;;;;;5000467;28;20414;-70
2023/10/13 11:09:31;;;;;;;8.82;5.97;;;20.80;99.90;;;;;;5008882;28;19918;-70
2023/10/13 11:12:06;;;;;;;12.20;6.68;;;20.80;99.90;;;;;;5006296;28;20528;-69
2023/10/13 11:14:32;;;;;;;13.63;6.95;;;20.80;99.90;;;;;;5004281;28;20074;-70
2023/10/13 11:17:20;;;;;;;15.82;6.75;;;20.80;99.90;;;;;;5011194;28;20013;-69
2023/10/13 11:19:46;;;;;;;16.45;6.57;;;20.80;99.90;;;;;;5010814;28;20027;-69
2023/10/13 11:25:12;;;;;;;16.42;7.20;;;20.80;99.90;;;;;;5003196;28;20143;-68
2023/10/13 11:27:55;;;;;;;11.38;6.22;;;20.80;99.90;;;;;;5004216;28;20104;-68
2023/10/13 11:30:25;;;;;;;14.45;7.20;;;20.80;99.90;;;;;;5005127;28;20037;-68
2023/10/13 11:33:01;;;;;;;15.05;6.53;;;20.80;99.90;;;;;;5010786;28;20040;-69
2023/10/13 11:35:48;;;;;;;21.13;7.60;;;20.80;99.90;;;;;;5007256;28;20022;-68
2023/10/13 11:38:15;;;;;;;15.88;7.35;;;20.90;99.90;;;;;;5005917;28;20568;-69
2023/10/13 11:41:06;;;;;;;22.05;7.68;;;20.90;99.90;;;;;;5003814;28;20041;-68
2023/10/13 11:46:13;;;;;;;15.70;7.32;;;20.90;99.90;;;;;;5006701;28;20034;-67
2023/10/13 11:48:42;;;;;;;22.10;8.10;;;20.90;99.90;;;;;;5009137;28;20444;-67
2023/10/13 11:51:23;;;;;;;17.77;7.07;;;20.90;99.90;;;;;;5003441;28;20108;-67
2023/10/13 11:53:53;;;;;;;17.45;6.80;;;20.90;99.90;;;;;;5007284;28;20109;-66
2023/10/13 11:56:23;;;;;;;22.20;7.35;;;20.90;99.90;;;;;;5007050;28;20058;-67
2023/10/13 11:58:49;;;;;;;19.98;7.93;;;20.90;99.90;;;;;;5005738;28;20034;-67
2023/10/13 12:11:44;;;;;;;12.52;7.18;;;21.00;99.90;;;;;;5010676;28;20038;-68
2023/10/13 12:14:17;;;;;;;16.83;6.90;;;21.00;99.90;;;;;;5009155;28;20033;-68
2023/10/13 12:16:52;;;;;;;15.45;7.32;;;21.00;99.90;;;;;;5004072;28;20072;-68
2023/10/13 12:19:23;;;;;;;17.52;7.30;;;21.00;99.90;;;;;;5012102;28;20034;-68
2023/10/13 12:21:49;;;;;;;19.83;6.75;;;21.00;99.90;;;;;;5010681;28;20479;-67
2023/10/13 12:24:30;;;;;;;13.43;6.40;;;21.00;99.90;;;;;;5011369;28;20385;-69
2023/10/13 12:26:57;;;;;;;16.08;6.32;;;21.00;99.90;;;;;;5008261;28;20518;-69
2023/10/13 12:29:28;;;;;;;13.55;5.63;;;21.00;99.90;;;;;;5011629;28;20030;-69
2023/10/13 12:32:13;;;;;;;14.63;6.70;;;21.00;99.90;;;;;;5006462;28;20092;-69
2023/10/13 12:51:40;;;;;;;12.32;6.20;;;21.10;99.90;;;;;;5008279;28;20065;-68
2023/10/13 12:54:35;;;;;;;18.10;6.07;;;21.10;99.90;;;;;;5006322;28;20026;-70
2023/10/13 12:56:56;;;;;;;12.95;6.80;;;21.10;99.90;;;;;;5009920;28;20581;-68
2023/10/13 12:59:26;;;;;;;15.38;6.47;;;21.10;99.90;;;;;;5005508;28;20061;-68
2023/10/13 13:01:53;;;;;;;11.85;6.38;;;21.10;99.90;;;;;;5000611;28;20053;-69
2023/10/13 13:04:20;;;;;;;14.05;6.00;;;21.10;99.90;;;;;;5002291;28;20026;-68
2023/10/13 13:06:47;;;;;;;13.07;6.53;;;21.10;99.90;;;;;;5002032;28;20573;-69
2023/10/13 13:09:13;;;;;;;17.30;6.18;;;21.20;99.90;;;;;;5010090;28;20070;-71
2023/10/13 13:11:41;;;;;;;16.58;6.63;;;21.10;99.90;;;;;;5011574;28;20053;-69
2023/10/13 13:14:08;;;;;;;14.00;5.97;;;21.10;99.90;;;;;;5012328;28;20030;-70
2023/10/13 13:16:35;;;;;;;16.92;5.70;;;21.20;99.90;;;;;;5011570;28;20065;-70
2023/10/13 13:19:09;;;;;;;12.32;5.57;;;21.20;99.90;;;;;;5012091;28;20026;-69
2023/10/13 13:21:38;;;;;;;18.40;6.97;;;21.20;99.90;;;;;;5004210;28;20037;-68
2023/10/13 13:24:10;;;;;;;12.63;5.53;;;21.20;99.90;;;;;;5013141;28;20029;-69
2023/10/13 13:26:40;;;;;;;12.07;5.75;;;21.20;99.90;;;;;;5013896;28;20141;-68
2023/10/13 13:29:09;;;;;;;13.73;5.78;;;21.20;99.90;;;;;;5014530;28;20064;-68
2023/10/13 13:31:40;;;;;;;14.55;6.03;;;21.20;99.90;;;;;;5013640;28;20424;-69
2023/10/13 13:34:09;;;;;;;11.63;5.90;;;21.20;99.90;;;;;;5013498;28;20368;-68
2023/10/13 13:36:36;;;;;;;15.30;6.70;;;21.20;99.90;;;;;;5014615;28;20026;-68
2023/10/13 13:39:02;;;;;;;17.15;6.18;;;21.20;99.90;;;;;;5012628;28;20072;-68
2023/10/13 13:41:28;;;;;;;11.70;5.47;;;21.30;99.90;;;;;;5011919;28;20038;-67
2023/10/13 13:43:56;;;;;;;15.07;5.63;;;21.30;99.90;;;;;;5012105;28;20167;-68
2023/10/13 13:46:32;;;;;;;15.32;6.07;;;21.30;99.90;;;;;;5008520;28;20033;-68
2023/10/13 13:48:59;;;;;;;10.43;5.28;;;21.40;99.90;;;;;;5012031;28;20038;-68
2023/10/13 13:51:28;;;;;;;11.35;5.72;;;21.30;99.90;;;;;;5012525;28;20087;-68
2023/10/13 13:53:55;;;;;;;14.68;5.57;;;21.40;99.90;;;;;;5011922;28;20026;-68
2023/10/13 13:56:25;;;;;;;12.85;6.10;;;21.40;99.90;;;;;;5014052;28;20053;-68
2023/10/13 13:58:52;;;;;;;11.75;5.25;;;21.40;99.90;;;;;;5014778;28;20156;-68
2023/10/13 14:01:18;;;;;;;16.85;6.30;;;21.40;99.90;;;;;;5004335;28;20054;-68
2023/10/13 14:03:46;;;;;;;13.60;5.93;;;21.40;99.90;;;;;;5011760;28;20037;-68
2023/10/13 14:06:26;;;;;;;10.25;5.85;;;21.40;99.90;;;;;;5012179;28;20022;-69
2023/10/13 14:08:56;;;;;;;13.88;5.78;;;21.40;99.90;;;;;;5010206;28;20495;-68
2023/10/13 14:14:28;;;;;;;11.20;5.78;;;21.40;99.90;;;;;;5011590;28;20034;-68
2023/10/13 14:17:02;;;;;;;14.68;5.57;;;21.40;99.90;;;;;;5013647;28;20037;-68
2023/10/13 14:19:28;;;;;;;10.15;5.10;;;21.40;99.90;;;;;;5014031;28;20030;-69
2023/10/13 14:21:58;;;;;;;13.38;5.65;;;21.40;99.90;;;;;;5012751;28;20080;-70
2023/10/13 14:24:27;;;;;;;13.20;5.55;;;21.40;99.90;;;;;;5013252;28;20026;-69
2023/10/13 14:27:12;;;;;;;12.75;5.35;;;21.40;99.90;;;;;;5004576;28;20858;-69
2023/10/13 14:29:42;;;;;;;11.68;5.82;;;21.40;99.90;;;;;;5012968;28;20030;-68
2023/10/13 14:32:15;;;;;;;12.02;5.47;;;21.40;99.90;;;;;;5014806;28;20066;-69
2023/10/13 14:34:48;;;;;;;14.68;5.78;;;21.50;99.90;;;;;;4994679;28;20028;-69
2023/10/13 14:37:20;;;;;;;11.60;5.88;;;21.50;99.90;;;;;;5010767;28;20053;-70
2023/10/13 14:39:46;;;;;;;;;;;21.40;99.90;;;;;;5012944;28;20030;-68
2023/10/13 14:42:11;;;;;;;12.48;5.55;;;21.40;99.90;;;;;;5009900;28;19910;-69
2023/10/13 14:44:37;;;;;;;11.65;6.05;;;21.40;99.90;;;;;;5005192;28;20602;-69
2023/10/13 14:47:05;;;;;;;9.75;5.13;;;21.40;99.90;;;;;;5013276;28;20058;-70
2023/10/13 14:49:31;;;;;;;11.60;5.18;;;21.40;99.90;;;;;;5009332;28;20038;-70
2023/10/13 14:51:59;;;;;;;9.95;5.47;;;21.40;99.90;;;;;;5011615;28;20033;-69
2023/10/13 14:54:32;;;;;;;12.18;5.35;;;21.40;99.90;;;;;;5009704;28;20033;-68
2023/10/13 14:57:02;;;;;;;9.45;5.18;;;21.40;99.90;;;;;;5006565;28;20152;-69
2023/10/13 14:59:33;;;;;;;12.32;5.10;;;21.40;99.90;;;;;;5005134;28;20041;-69
2023/10/13 15:02:00;;;;;;;10.25;5.32;;;21.40;99.90;;;;;;5011584;28;20026;-69
2023/10/13 15:04:28;;;;;;;11.70;6.07;;;21.40;99.90;;;;;;5012451;28;20395;-70
2023/10/13 15:06:55;;;;;;;11.35;5.22;;;21.40;99.90;;;;;;5012193;28;20036;-70
2023/10/13 15:09:23;;;;;;;13.77;5.97;;;21.40;99.90;;;;;;5012304;28;20487;-69
2023/10/13 15:11:53;;;;;;;11.35;5.35;;;21.40;99.90;;;;;;5011334;28;20100;-69
2023/10/13 15:14:20;;;;;;;11.23;5.38;;;21.40;99.90;;;;;;5011147;28;20045;-71
2023/10/13 15:16:46;;;;;;;9.90;5.28;;;21.40;99.90;;;;;;5011638;28;20114;-71
2023/10/13 15:19:12;;;;;;;9.63;5.40;;;21.40;99.90;;;;;;5011439;28;20053;-70
2023/10/13 15:21:40;;;;;;;8.50;4.82;;;21.40;99.90;;;;;;5011828;28;20033;-71
2023/10/13 15:24:13;;;;;;;10.07;5.43;;;21.40;99.90;;;;;;5012763;28;20356;-71
2023/10/13 15:26:41;;;;;;;11.13;5.40;;;21.40;99.90;;;;;;5013079;28;20018;-71
2023/10/13 15:29:12;;;;;;;11.15;5.50;;;21.40;99.90;;;;;;5010662;28;20061;-70
2023/10/13 15:31:41;;;;;;;12.05;5.63;;;21.40;99.90;;;;;;5011703;28;20467;-71
2023/10/13 15:34:15;;;;;;;10.57;5.55;;;21.40;99.90;;;;;;5009971;28;20743;-70
2023/10/13 15:36:43;;;;;;;9.75;5.03;;;21.50;99.90;;;;;;5008829;28;20064;-71
2023/10/13 15:39:15;;;;;;;11.25;5.55;;;21.40;99.90;;;;;;5010387;28;20033;-70
2023/10/13 15:41:41;;;;;;;9.13;5.18;;;21.40;99.90;;;;;;5011912;28;20075;-71
2023/10/13 15:44:13;;;;;;;9.65;4.47;;;21.50;99.90;;;;;;5008338;28;20438;-71
2023/10/13 15:46:39;;;;;;;10.55;5.07;;;21.40;99.90;;;;;;5008117;28;20105;-70
2023/10/13 15:49:06;;;;;;;10.00;5.38;;;21.50;99.90;;;;;;5011335;28;20069;-70
2023/10/13 15:51:36;;;;;;;12.30;5.93;;;21.40;99.90;;;;;;5009828;28;20056;-71
2023/10/13 15:54:03;;;;;;;9.70;4.95;;;21.50;99.90;;;;;;5007123;28;20034;-70
2023/10/13 15:56:32;;;;;;;7.85;5.18;;;21.50;99.90;;;;;;5009699;28;20021;-71
2023/10/13 15:59:01;;;;;;;11.13;5.50;;;21.40;99.90;;;;;;5009664;28;20028;-70
2023/10/13 16:01:28;;;;;;;12.93;5.35;;;21.50;99.90;;;;;;5007314;28;20447;-71
2023/10/13 16:03:54;;;;;;;8.57;5.55;;;21.40;99.90;;;;;;5007936;28;20030;-71
2023/10/13 16:06:21;;;;;;;8.82;5.53;;;21.40;99.90;;;;;;5005923;28;20029;-71
2023/10/13 16:08:48;;;;;;;14.85;5.82;;;21.40;99.90;;;;;;5007746;28;20021;-70
2023/10/13 16:11:17;;;;;;;10.02;5.22;;;21.40;99.90;;;;;;5012947;28;20130;-70
2023/10/13 16:13:50;;;;;;;10.48;5.15;;;21.50;99.90;;;;;;5006679;28;20034;-70
2023/10/13 16:16:24;;;;;;;12.52;5.30;;;21.50;99.90;;;;;;5003464;28;20026;-71